Time;durP1;ratioP1;P1;durP2;ratioP2;P2;SDS_P1;SDS_P2;PMS_P1;PMS_P2;Temp;Humidity;BMP_temperature;BMP_pressure;BME280_temperature;BME280_humidity;BME280_pressure;Samples;Min_cycle;Max_cycle;Signal;HPM_P1;HPM_P2
2022/09/18 00:00:18;;;;;;;4.72;1.60;;;;;;;8.94;96.09;98439.81;5124799;28;20075;-94
2022/09/18 00:02:45;;;;;;;4.65;1.50;;;;;;;9.12;96.55;98476.44;5124654;28;20123;-94
2022/09/18 00:05:11;;;;;;;3.97;1.60;;;;;;;9.01;96.69;98438.72;5124397;28;20054;-93
2022/09/18 00:07:37;;;;;;;3.65;1.63;;;;;;;8.96;96.77;98437.97;5124347;28;20074;-93
2022/09/18 00:10:04;;;;;;;2.83;1.40;;;;;;;8.92;96.38;98437.19;5124668;28;20061;-94
2022/09/18 00:12:30;;;;;;;4.53;1.80;;;;;;;8.88;96.67;98429.34;5124524;28;20148;-94
2022/09/18 00:14:58;;;;;;;3.20;1.60;;;;;;;8.81;96.73;98432.16;5124664;28;20048;-95
2022/09/18 00:17:28;;;;;;;6.53;1.60;;;;;;;8.75;96.69;98428.78;5124086;28;20043;-94
2022/09/18 00:19:55;;;;;;;3.83;1.50;;;;;;;8.77;96.55;98441.09;5124112;28;20067;-94
2022/09/18 00:22:21;;;;;;;3.83;1.90;;;;;;;8.72;96.19;98439.44;5124241;28;20048;-94
2022/09/18 00:24:47;;;;;;;3.40;1.58;;;;;;;8.94;95.57;98476.94;5123826;28;20047;-94
2022/09/18 00:27:16;;;;;;;;;;;;;;;8.85;96.14;98488.63;5125101;28;20167;-94
2022/09/18 00:29:43;;;;;;;4.80;2.03;;;;;;;8.71;97.30;98453.63;5124130;28;19922;-93
2022/09/18 00:32:09;;;;;;;2.45;1.60;;;;;;;8.60;97.49;98433.53;5124654;28;20043;-95
2022/09/18 00:34:40;;;;;;;4.35;1.60;;;;;;;8.80;97.43;98472.84;5123423;28;20036;-93
2022/09/18 00:37:07;;;;;;;3.08;1.70;;;;;;;8.60;97.31;98452.09;5109550;28;20055;-94
2022/09/18 00:39:33;;;;;;;2.55;1.55;;;;;;;8.55;97.20;98445.19;5110821;28;20040;-94
2022/09/18 00:42:00;;;;;;;2.67;1.70;;;;;;;8.53;97.24;98452.31;5110458;28;20044;-94
2022/09/18 00:44:37;;;;;;;3.15;1.60;;;;;;;8.47;97.77;98444.50;5110209;28;20044;-94
2022/09/18 00:47:26;;;;;;;3.72;1.80;;;;;;;8.72;97.31;98484.50;5110498;28;20096;-95
2022/09/18 00:50:02;;;;;;;3.03;1.80;;;;;;;8.42;97.29;98445.47;5089575;28;20040;-95
2022/09/18 00:52:36;;;;;;;4.20;1.60;;;;;;;8.46;97.64;98458.63;5090090;28;20037;-93
2022/09/18 00:55:07;;;;;;;3.65;1.40;;;;;;;8.35;97.85;98446.50;5090336;28;20040;-94
2022/09/18 00:57:39;;;;;;;3.92;1.83;;;;;;;8.43;97.46;98449.84;5089221;28;20098;-94
2022/09/18 01:00:10;;;;;;;4.90;1.90;;;;;;;8.45;98.55;98452.47;5089802;28;20044;-93
2022/09/18 01:02:44;;;;;;;4.65;1.90;;;;;;;8.44;98.56;98456.03;5090385;28;20041;-96
2022/09/18 01:05:17;;;;;;;2.65;1.77;;;;;;;8.55;98.74;98480.50;5089707;28;20051;-93
2022/09/18 01:08:00;;;;;;;3.22;1.65;;;;;;;8.36;99.27;98457.97;5090657;28;20037;-93
2022/09/18 01:10:44;;;;;;;2.45;1.60;;;;;;;8.37;98.05;98459.69;5089472;28;20052;-94
2022/09/18 01:13:15;;;;;;;4.00;1.90;;;;;;;8.33;98.87;98466.84;5089787;28;20127;-93
2022/09/18 01:15:51;;;;;;;3.08;1.60;;;;;;;8.32;99.08;98473.03;5090028;28;20031;-93
2022/09/18 01:18:24;;;;;;;3.33;1.60;;;;;;;8.40;99.05;98483.47;5104416;28;20051;-92
2022/09/18 01:21:08;;;;;;;4.55;1.70;;;;;;;8.35;98.66;98483.59;5109795;28;20044;-93
2022/09/18 01:24:05;;;;;;;3.78;1.65;;;;;;;8.42;98.70;98501.13;5089183;28;20049;-93
2022/09/18 01:26:51;;;;;;;2.63;1.95;;;;;;;8.19;99.34;98475.09;5081897;28;20040;-93
2022/09/18 01:29:38;;;;;;;3.92;2.65;;;;;;;8.19;99.20;98472.44;5088555;28;20078;-95
2022/09/18 01:32:11;;;;;;;4.30;1.70;;;;;;;8.12;98.94;98475.28;5086837;28;20040;-95
2022/09/18 01:34:45;;;;;;;3.00;1.83;;;;;;;8.08;98.57;98471.81;5089158;28;20055;-95
2022/09/18 01:37:17;;;;;;;3.55;1.95;;;;;;;8.27;99.90;98505.84;5089757;28;20099;-94
2022/09/18 01:39:50;;;;;;;3.80;1.70;;;;;;;8.09;99.76;98485.91;5089948;28;20037;-94
2022/09/18 01:42:21;;;;;;;2.00;1.60;;;;;;;8.31;98.57;98484.56;5088817;28;20036;-94
2022/09/18 01:44:53;;;;;;;3.90;1.60;;;;;;;8.43;96.85;98524.03;5089297;28;20037;-95
2022/09/18 01:47:21;;;;;;;2.40;1.50;;;;;;;8.08;97.53;98484.19;5088435;28;20104;-95
2022/09/18 01:49:52;;;;;;;3.22;1.50;;;;;;;8.27;98.45;98521.75;5087856;28;20401;-94
2022/09/18 01:52:24;;;;;;;3.22;1.55;;;;;;;8.05;98.06;98484.28;5089184;28;20048;-94
2022/09/18 01:54:57;;;;;;;3.47;1.90;;;;;;;8.11;98.55;98497.34;5089866;28;20047;-93
2022/09/18 01:57:27;;;;;;;4.80;2.17;;;;;;;8.03;98.55;98479.88;5089785;28;20076;-94
2022/09/18 01:59:59;;;;;;;5.07;1.95;;;;;;;7.99;98.53;98486.13;5088475;28;20127;-94
2022/09/18 02:02:31;;;;;;;3.15;1.90;;;;;;;8.09;98.02;98481.53;5089047;28;20040;-93
2022/09/18 02:05:00;;;;;;;3.03;2.00;;;;;;;8.14;98.19;98487.56;5088505;28;20071;-95
2022/09/18 02:07:35;;;;;;;2.05;1.60;;;;;;;8.16;97.80;98487.56;5088321;28;20090;-94
2022/09/18 02:10:02;;;;;;;3.00;1.75;;;;;;;8.17;98.56;98494.59;5088807;28;20124;-94
2022/09/18 02:12:32;;;;;;;2.40;1.67;;;;;;;8.37;98.34;98532.13;5088220;28;20111;-94
2022/09/18 02:15:04;;;;;;;4.55;1.70;;;;;;;8.07;97.92;98485.97;5088303;28;20052;-93
2022/09/18 02:17:35;;;;;;;6.70;2.33;;;;;;;8.17;97.81;98494.59;5088074;28;20051;-94
2022/09/18 02:20:09;;;;;;;1.63;1.50;;;;;;;8.08;98.21;98489.50;5088394;28;20064;-93
2022/09/18 02:22:37;;;;;;;2.10;1.60;;;;;;;8.03;98.13;98498.41;5088403;28;20113;-95
2022/09/18 02:25:06;;;;;;;1.83;1.50;;;;;;;8.12;98.41;98504.41;5088188;28;20052;-93
2022/09/18 02:27:33;;;;;;;;;;;;;;;8.28;97.87;98536.72;5088051;28;20045;-94
2022/09/18 02:30:03;;;;;;;2.35;1.77;;;;;;;8.01;97.85;98483.47;5088313;28;19920;-94
2022/09/18 02:32:30;;;;;;;2.75;1.73;;;;;;;7.91;97.47;98487.19;5087441;28;20056;-93
2022/09/18 02:34:56;;;;;;;2.92;1.63;;;;;;;7.88;97.50;98488.13;5088262;28;20037;-93
2022/09/18 02:37:36;;;;;;;3.70;1.60;;;;;;;7.84;97.66;98494.38;5088523;28;20104;-94
2022/09/18 02:40:29;;;;;;;3.90;2.00;;;;;;;7.76;97.62;98488.38;5088274;28;20044;-95
2022/09/18 02:43:17;;;;;;;2.47;1.65;;;;;;;7.76;98.17;98498.97;5087152;28;20513;-94
2022/09/18 02:45:52;;;;;;;2.13;1.40;;;;;;;8.01;98.15;98547.88;5088231;28;20044;-94
2022/09/18 02:48:36;;;;;;;2.33;1.60;;;;;;;7.84;97.44;98502.34;5088168;28;20067;-94
2022/09/18 02:51:09;;;;;;;2.88;1.80;;;;;;;8.08;96.50;98534.50;5089070;28;20074;-93
2022/09/18 02:53:45;;;;;;;1.92;1.48;;;;;;;7.83;97.10;98490.00;5088088;28;20045;-93
2022/09/18 02:56:21;;;;;;;2.33;1.70;;;;;;;7.81;96.34;98491.81;5087371;28;20045;-95
2022/09/18 02:58:52;;;;;;;2.53;1.70;;;;;;;7.77;98.55;98503.38;5087202;28;20048;-95
2022/09/18 03:01:25;;;;;;;4.10;1.80;;;;;;;7.78;99.60;98508.59;5087884;28;20515;-94
2022/09/18 03:04:00;;;;;;;6.70;1.90;;;;;;;7.72;100.00;98502.56;5086907;28;20060;-93
2022/09/18 03:06:27;;;;;;;4.75;1.85;;;;;;;7.71;99.70;98500.84;5095331;28;20044;-94
2022/09/18 03:08:53;;;;;;;3.03;1.70;;;;;;;7.77;100.00;98503.38;5107627;28;20036;-94
2022/09/18 03:11:19;;;;;;;3.75;1.70;;;;;;;7.75;99.14;98510.47;5108382;28;20069;-94
2022/09/18 03:13:45;;;;;;;2.15;1.48;;;;;;;7.70;98.82;98514.97;5108043;28;20125;-95
2022/09/18 03:16:11;;;;;;;3.70;1.90;;;;;;;7.63;99.38;98500.97;5107827;28;20075;-94
2022/09/18 03:18:39;;;;;;;2.45;1.70;;;;;;;7.61;99.01;98508.97;5108159;28;20170;-93
2022/09/18 03:21:05;;;;;;;5.95;1.70;;;;;;;7.64;98.94;98520.41;5104634;28;20050;-94
2022/09/18 03:23:32;;;;;;;2.35;1.52;;;;;;;7.63;98.76;98526.56;5087588;28;20124;-93
2022/09/18 03:25:58;;;;;;;3.08;1.60;;;;;;;7.58;99.32;98521.38;5087290;28;20047;-94
2022/09/18 03:28:24;;;;;;;2.28;1.65;;;;;;;7.54;98.86;98523.19;5087469;28;20048;-94
2022/09/18 03:30:50;;;;;;;2.67;1.77;;;;;;;7.61;97.80;98534.53;5087730;28;20036;-94
2022/09/18 03:33:19;;;;;;;3.25;1.90;;;;;;;7.75;97.84;98566.06;5087214;28;20091;-94
2022/09/18 03:35:47;;;;;;;7.18;2.63;;;;;;;7.54;99.51;98533.78;5087731;28;20500;-94
2022/09/18 03:38:14;;;;;;;3.58;2.47;;;;;;;7.59;99.99;98537.22;5087505;28;20114;-94
2022/09/18 03:40:42;;;;;;;6.53;2.92;;;;;;;7.47;100.00;98540.09;5086395;28;20132;-94
2022/09/18 03:43:11;;;;;;;5.53;3.05;;;;;;;7.40;100.00;98543.75;5085924;28;20100;-94
2022/09/18 03:45:37;;;;;;;4.82;2.80;;;;;;;7.37;100.00;98546.44;5099528;28;20048;-95
2022/09/18 03:48:03;;;;;;;4.07;2.60;;;;;;;7.36;100.00;98550.88;5100220;28;20544;-94
2022/09/18 03:50:30;;;;;;;3.95;2.80;;;;;;;7.67;100.00;98597.94;5087191;28;20051;-94
2022/09/18 03:52:59;;;;;;;4.22;2.58;;;;;;;7.81;100.00;98601.22;5087534;28;20055;-94
2022/09/18 03:55:26;;;;;;;4.28;2.95;;;;;;;7.52;100.00;98547.94;5086603;28;20086;-93
2022/09/18 03:57:52;;;;;;;7.80;2.72;;;;;;;7.37;100.00;98555.28;5096372;28;20040;-95
2022/09/18 04:00:19;;;;;;;8.35;2.53;;;;;;;7.32;100.00;98558.88;5106273;28;20048;-94
2022/09/18 04:02:45;;;;;;;5.03;2.90;;;;;;;7.26;100.00;98554.56;5107097;28;20044;-94
2022/09/18 04:05:11;;;;;;;4.97;3.03;;;;;;;7.27;100.00;98558.97;5107278;28;20040;-93
2022/09/18 04:07:37;;;;;;;5.00;2.90;;;;;;;7.44;100.00;98598.38;5106561;28;20063;-95
2022/09/18 04:10:07;;;;;;;4.22;2.72;;;;;;;7.31;100.00;98570.38;5106258;28;20041;-94
2022/09/18 04:12:34;;;;;;;6.03;2.97;;;;;;;7.20;100.00;98566.13;5110514;28;20048;-95
2022/09/18 04:15:00;;;;;;;4.13;2.50;;;;;;;7.19;100.00;98577.59;5111271;28;20040;-95
2022/09/18 04:17:26;;;;;;;4.68;2.80;;;;;;;7.15;100.00;98581.19;5110846;28;20048;-95
2022/09/18 04:19:53;;;;;;;5.78;2.88;;;;;;;7.15;100.00;98581.19;5110725;28;20070;-93
2022/09/18 04:22:19;;;;;;;4.10;2.75;;;;;;;7.19;100.00;98604.03;5109569;28;20554;-95
2022/09/18 04:24:45;;;;;;;4.18;2.25;;;;;;;7.17;100.00;98602.31;5110466;28;20118;-93
2022/09/18 04:27:13;;;;;;;3.78;2.50;;;;;;;7.25;100.00;98620.72;5110892;28;20048;-94
2022/09/18 04:29:39;;;;;;;3.75;2.50;;;;;;;6.99;100.00;98593.78;5107666;28;20099;-94
2022/09/18 04:32:06;;;;;;;4.60;2.95;;;;;;;7.04;100.00;98622.81;5108148;28;20101;-95
2022/09/18 04:34:32;;;;;;;4.65;2.90;;;;;;;6.90;100.00;98606.28;5105949;28;20044;-95
2022/09/18 04:36:58;;;;;;;16.42;4.40;;;;;;;7.04;100.00;98636.03;5106956;28;20108;-95
2022/09/18 04:39:27;;;;;;;16.35;3.50;;;;;;;6.85;100.00;98598.41;5109724;28;20129;-95
2022/09/18 04:41:53;;;;;;;52.53;6.00;;;;;;;7.13;100.00;98641.16;5109972;28;20091;-94
2022/09/18 04:44:20;;;;;;;141.52;9.43;;;;;;;6.84;100.00;98615.16;5108545;28;20090;-95
2022/09/18 04:46:46;;;;;;;25.70;4.47;;;;;;;6.82;100.00;98613.44;5107636;28;20100;-95
2022/09/18 04:49:13;;;;;;;81.82;9.05;;;;;;;6.70;100.00;98615.38;5107929;28;20043;-93
2022/09/18 04:51:39;;;;;;;31.17;5.07;;;;;;;6.69;100.00;98618.91;5108709;28;20117;-94
2022/09/18 04:54:05;;;;;;;64.40;7.68;;;;;;;6.76;100.00;98630.25;5110219;28;20055;-94
2022/09/18 04:56:31;;;;;;;46.67;7.80;;;;;;;6.71;100.00;98632.09;5108441;28;20066;-96
2022/09/18 04:58:58;;;;;;;27.65;5.97;;;;;;;6.85;100.00;98645.97;5108144;28;20462;-94
2022/09/18 05:01:26;;;;;;;110.95;10.00;;;;;;;6.83;100.00;98649.53;5109799;28;20062;-95
2022/09/18 05:03:53;;;;;;;48.45;6.28;;;;;;;6.74;100.00;98640.88;5109832;28;20051;-92
2022/09/18 05:06:19;;;;;;;20.30;5.03;;;;;;;6.78;100.00;98644.31;5107031;28;20044;-93
2022/09/18 05:08:45;;;;;;;11.18;4.53;;;;;;;6.86;100.00;98650.38;5108181;28;20051;-95
2022/09/18 05:11:11;;;;;;;12.20;4.20;;;;;;;6.87;100.00;98660.06;5108039;28;20108;-92
2022/09/18 05:13:38;;;;;;;9.13;4.25;;;;;;;6.88;100.00;98666.22;5107586;28;20040;-95
2022/09/18 05:16:05;;;;;;;5.15;3.05;;;;;;;6.93;100.00;98664.38;5108755;28;20066;-93
2022/09/18 05:18:32;;;;;;;4.20;2.92;;;;;;;6.98;100.00;98673.13;5107237;28;20048;-94
2022/09/18 05:21:00;;;;;;;5.65;3.30;;;;;;;7.10;100.00;98672.09;5107865;28;20051;-95
2022/09/18 05:23:26;;;;;;;4.20;2.60;;;;;;;7.33;100.00;98675.25;5089355;28;20059;-95
2022/09/18 05:25:53;;;;;;;4.47;2.72;;;;;;;7.50;100.00;98672.31;5089392;28;20078;-93
2022/09/18 05:28:19;;;;;;;20.45;4.50;;;;;;;7.59;100.00;98687.22;5089077;28;20044;-95
2022/09/18 05:30:45;;;;;;;16.70;4.28;;;;;;;7.67;100.00;98705.59;5089041;28;20056;-94
2022/09/18 05:33:13;;;;;;;91.03;9.68;;;;;;;7.21;100.00;98675.44;5087627;28;20074;-94
2022/09/18 05:35:41;;;;;;;50.15;5.10;;;;;;;7.32;100.00;98672.63;5088862;28;20044;-94
2022/09/18 05:38:09;;;;;;;33.40;5.18;;;;;;;7.41;100.00;98670.69;5089175;28;20044;-92
2022/09/18 05:40:37;;;;;;;37.15;4.95;;;;;;;7.60;100.00;98679.22;5091616;28;20054;-94
2022/09/18 05:43:04;;;;;;;23.85;4.35;;;;;;;7.62;100.00;98681.84;5108977;28;20051;-93
2022/09/18 05:45:31;;;;;;;36.53;5.40;;;;;;;7.74;100.00;98681.66;5109123;28;20040;-94
2022/09/18 05:47:58;;;;;;;69.30;6.68;;;;;;;7.79;100.00;98689.50;5109566;28;20031;-95
2022/09/18 05:50:27;;;;;;;69.97;6.97;;;;;;;7.90;100.00;98711.38;5108137;28;20036;-94
2022/09/18 05:53:00;;;;;;;78.82;6.63;;;;;;;7.82;100.00;98697.38;5097901;28;20057;-93
2022/09/18 05:55:27;;;;;;;144.43;9.25;;;;;;;7.64;100.00;98697.72;5086704;28;20049;-93
2022/09/18 05:57:57;;;;;;;107.28;8.88;;;;;;;7.54;100.00;98695.19;5087997;28;20051;-93
2022/09/18 06:00:24;;;;;;;105.00;8.80;;;;;;;7.30;100.00;98692.94;5085776;28;20068;-93
2022/09/18 06:02:55;;;;;;;132.60;9.20;;;;;;;7.18;100.00;98692.22;5086751;28;20052;-94
2022/09/18 06:05:25;;;;;;;178.80;13.18;;;;;;;7.12;100.00;98702.03;5086637;28;20041;-94
2022/09/18 06:07:51;;;;;;;180.43;11.75;;;;;;;7.26;100.00;98705.31;5086311;28;20045;-96
2022/09/18 06:10:20;;;;;;;129.07;8.68;;;;;;;7.21;100.00;98696.59;5086284;28;20029;-93
2022/09/18 06:12:47;;;;;;;179.98;10.50;;;;;;;7.19;100.00;98704.53;5086501;28;20041;-93
2022/09/18 06:15:13;;;;;;;38.40;6.28;;;;;;;7.36;100.00;98714.88;5087692;28;20033;-94
2022/09/18 06:17:42;;;;;;;95.88;9.05;;;;;;;7.38;100.00;98701.63;5088110;28;20053;-94
2022/09/18 06:20:09;;;;;;;40.50;7.22;;;;;;;7.43;100.00;98717.44;5086569;28;20048;-93
2022/09/18 06:22:38;;;;;;;23.23;5.57;;;;;;;7.27;100.00;98719.44;5085791;28;20049;-95
2022/09/18 06:25:04;;;;;;;;;;;;;;;7.59;100.00;98751.59;5086409;28;20078;-94
2022/09/18 06:27:34;;;;;;;14.75;4.65;;;;;;;7.75;100.00;98741.63;5105598;28;19920;-95
2022/09/18 06:30:01;;;;;;;10.50;4.43;;;;;;;7.89;100.00;98725.50;5107733;28;20071;-95
2022/09/18 06:32:29;;;;;;;9.88;4.13;;;;;;;7.90;100.00;98703.44;5097553;28;20044;-95
2022/09/18 06:34:55;;;;;;;9.27;4.45;;;;;;;7.96;100.00;98711.28;5087259;28;20076;-93
2022/09/18 06:37:22;;;;;;;10.00;4.55;;;;;;;7.99;100.00;98700.59;5087204;28;20086;-94
2022/09/18 06:39:48;;;;;;;8.25;4.43;;;;;;;8.03;100.00;98694.38;5087787;28;20060;-94
2022/09/18 06:42:16;;;;;;;7.57;4.18;;;;;;;8.19;100.00;98702.03;5087114;28;20048;-93
2022/09/18 06:44:44;;;;;;;6.85;3.88;;;;;;;8.44;100.00;98697.19;5086017;28;20045;-95
2022/09/18 06:47:10;;;;;;;6.88;4.00;;;;;;;8.49;100.00;98707.69;5086433;28;20045;-94
2022/09/18 06:49:36;;;;;;;5.78;3.97;;;;;;;8.43;100.00;98704.22;5086383;28;20586;-94
2022/09/18 06:52:03;;;;;;;7.00;4.15;;;;;;;8.55;100.00;98705.78;5084337;28;20472;-94
2022/09/18 06:54:29;;;;;;;6.40;3.88;;;;;;;8.71;100.00;98716.94;5084770;28;20048;-92
2022/09/18 06:56:55;;;;;;;8.48;4.72;;;;;;;8.79;100.00;98703.53;5084521;28;20048;-96
2022/09/18 06:59:21;;;;;;;5.63;3.63;;;;;;;9.08;100.00;98721.47;5084291;28;20123;-94
2022/09/18 07:01:49;;;;;;;6.10;3.88;;;;;;;9.44;100.00;98742.78;5083639;28;20052;-93
2022/09/18 07:04:15;;;;;;;7.43;3.72;;;;;;;9.59;99.54;98718.53;5083218;28;20041;-94
2022/09/18 07:06:44;;;;;;;6.40;3.65;;;;;;;10.03;97.05;98744.91;5081910;28;20543;-94
2022/09/18 07:09:11;;;;;;;5.53;3.03;;;;;;;10.18;93.39;98709.09;5083509;28;20051;-93
2022/09/18 07:11:38;;;;;;;4.70;2.90;;;;;;;10.07;90.72;98706.72;5084490;28;20060;-94
2022/09/18 07:14:05;;;;;;;7.47;3.05;;;;;;;10.12;91.63;98715.44;5084245;28;20043;-95
2022/09/18 07:16:31;;;;;;;4.30;2.83;;;;;;;10.23;90.45;98741.75;5085232;28;20048;-95
2022/09/18 07:18:58;;;;;;;4.88;2.95;;;;;;;10.31;90.63;98726.50;5082885;28;20048;-93
2022/09/18 07:21:24;;;;;;;5.68;2.60;;;;;;;10.42;90.04;98728.88;5082080;28;20104;-94
2022/09/18 07:23:51;;;;;;;8.20;3.08;;;;;;;10.46;89.86;98736.72;5084237;28;20409;-93
2022/09/18 07:26:18;;;;;;;5.03;2.92;;;;;;;10.83;88.87;98769.41;5099265;28;20443;-94
2022/09/18 07:28:46;;;;;;;6.53;3.20;;;;;;;10.88;86.87;98731.09;5107451;28;20048;-92
2022/09/18 07:31:12;;;;;;;5.47;2.90;;;;;;;11.08;86.80;98735.88;5107861;28;20129;-93
2022/09/18 07:33:39;;;;;;;5.22;3.00;;;;;;;11.51;84.83;98766.50;5102513;28;20044;-94
2022/09/18 07:36:07;;;;;;;5.45;2.70;;;;;;;11.21;83.58;98759.44;5100933;28;20060;-94
2022/09/18 07:38:34;;;;;;;4.82;2.95;;;;;;;11.12;83.32;98749.94;5084821;28;20040;-93
2022/09/18 07:41:01;;;;;;;4.93;2.88;;;;;;;11.12;84.11;98751.72;5085202;28;20055;-94
2022/09/18 07:43:27;;;;;;;4.65;2.80;;;;;;;11.43;82.91;98754.34;5101657;28;20055;-93
2022/09/18 07:45:53;;;;;;;5.35;2.80;;;;;;;11.57;82.47;98752.13;5098041;28;20040;-94
2022/09/18 07:48:19;;;;;;;5.35;3.08;;;;;;;11.68;81.56;98752.63;5088824;28;20055;-93
2022/09/18 07:50:45;;;;;;;6.60;3.20;;;;;;;11.95;80.85;98751.81;5084610;28;20079;-94
2022/09/18 07:53:12;;;;;;;5.13;2.80;;;;;;;12.26;79.90;98751.69;5083872;28;20048;-95
2022/09/18 07:55:51;;;;;;;6.60;3.17;;;;;;;12.70;78.84;98791.94;5084805;28;20044;-94
2022/09/18 07:58:27;;;;;;;5.75;2.90;;;;;;;12.76;78.38;98773.03;5085163;28;20048;-94
2022/09/18 08:00:53;;;;;;;5.93;3.13;;;;;;;12.92;75.73;98768.91;5087368;28;20127;-96
2022/09/18 08:03:19;;;;;;;6.47;3.47;;;;;;;12.74;75.93;98757.09;5085866;28;20083;-96
2022/09/18 08:05:48;;;;;;;7.50;3.13;;;;;;;12.72;77.20;98752.72;5086451;28;20051;-95
2022/09/18 08:08:18;;;;;;;7.05;3.33;;;;;;;12.94;74.80;98776.84;5088996;28;20045;-95
2022/09/18 08:10:45;;;;;;;5.78;2.92;;;;;;;13.03;74.76;98789.84;5091665;28;20044;-96
2022/09/18 08:13:12;;;;;;;5.03;2.67;;;;;;;12.93;73.50;98756.44;5090482;28;20078;-95
2022/09/18 08:15:40;;;;;;;6.13;2.92;;;;;;;13.18;73.62;98759.03;5087225;28;20066;-95
2022/09/18 08:18:07;;;;;;;5.97;3.00;;;;;;;13.47;73.35;98760.63;5088378;28;20083;-94
2022/09/18 08:20:34;;;;;;;4.85;3.25;;;;;;;13.86;73.28;98783.19;5085985;28;20147;-94
2022/09/18 08:23:01;;;;;;;5.38;3.47;;;;;;;14.06;71.06;98777.88;5085644;28;20053;-93
2022/09/18 08:25:29;;;;;;;6.85;3.65;;;;;;;14.09;69.07;98755.47;5089246;28;20118;-95
2022/09/18 08:27:58;;;;;;;4.07;2.47;;;;;;;14.11;67.81;98758.97;5087785;28;20067;-94
2022/09/18 08:30:24;;;;;;;4.70;2.67;;;;;;;14.21;68.47;98765.69;5089660;28;20074;-94
2022/09/18 08:32:50;;;;;;;4.07;2.45;;;;;;;14.01;69.27;98784.34;5084216;28;20511;-95
2022/09/18 08:35:17;;;;;;;3.92;2.38;;;;;;;13.76;68.35;98764.81;5083344;28;20493;-96
2022/09/18 08:37:47;;;;;;;5.90;2.50;;;;;;;13.80;69.42;98764.72;5083908;28;20040;-96
2022/09/18 08:40:14;;;;;;;5.88;2.97;;;;;;;14.05;67.59;98772.59;5083779;28;20131;-94
2022/09/18 08:43:00;;;;;;;5.13;2.70;;;;;;;13.91;66.70;98771.34;5085170;28;20052;-95
2022/09/18 08:45:38;;;;;;;5.25;3.15;;;;;;;14.37;68.41;98781.94;5085832;28;20048;-94
2022/09/18 08:48:13;;;;;;;4.32;2.65;;;;;;;14.71;64.83;98776.03;5085033;28;20045;-95
2022/09/18 08:50:44;;;;;;;4.80;2.33;;;;;;;15.14;65.40;98774.13;5084313;28;20070;-95
2022/09/18 08:53:17;;;;;;;6.25;2.60;;;;;;;15.48;64.09;98782.41;5085027;28;20055;-94
2022/09/18 08:55:57;;;;;;;6.97;2.67;;;;;;;15.69;63.06;98802.84;5085433;28;20066;-95
2022/09/18 08:58:29;;;;;;;5.18;2.40;;;;;;;15.63;62.48;98778.13;5087275;28;20130;-95
2022/09/18 09:01:00;;;;;;;7.43;3.10;;;;;;;15.78;64.41;98777.44;5090420;28;20044;-94
2022/09/18 09:03:33;;;;;;;4.85;2.50;;;;;;;15.85;60.90;98776.19;5089290;28;20048;-94
2022/09/18 09:06:04;;;;;;;5.10;2.38;;;;;;;16.07;61.91;98773.34;5088176;28;20044;-95
2022/09/18 09:09:02;;;;;;;5.20;2.70;;;;;;;16.32;63.13;98785.53;5087628;28;20052;-96
2022/09/18 09:11:36;;;;;;;5.97;2.97;;;;;;;16.40;60.76;98767.22;5088900;28;20048;-93
2022/09/18 09:14:19;;;;;;;3.83;2.30;;;;;;;16.69;61.21;98803.31;5087755;28;20049;-93
2022/09/18 09:16:49;;;;;;;5.57;3.17;;;;;;;16.51;60.96;98764.00;5086869;28;20079;-94
2022/09/18 09:19:26;;;;;;;3.78;2.30;;;;;;;16.68;59.52;98765.81;5088663;28;20048;-93
2022/09/18 09:21:59;;;;;;;4.35;2.30;;;;;;;16.80;59.18;98762.50;5087627;28;20099;-94
2022/09/18 09:24:31;;;;;;;5.82;2.92;;;;;;;16.86;59.02;98767.56;5088572;28;20048;-93
2022/09/18 09:27:01;;;;;;;6.60;2.33;;;;;;;17.00;58.42;98772.19;5087189;28;20060;-94
2022/09/18 09:29:33;;;;;;;3.42;2.22;;;;;;;16.84;56.82;98754.19;5088359;28;20109;-95
2022/09/18 09:32:06;;;;;;;4.00;2.03;;;;;;;16.99;57.54;98763.28;5088987;28;20056;-94
2022/09/18 09:34:41;;;;;;;4.30;2.25;;;;;;;17.04;58.41;98758.53;5088593;28;20040;-95
2022/09/18 09:37:13;;;;;;;4.50;2.10;;;;;;;17.23;57.46;98746.78;5087442;28;20049;-95
2022/09/18 09:39:42;;;;;;;4.20;2.30;;;;;;;17.28;57.67;98746.53;5088646;28;20052;-94
2022/09/18 09:42:15;;;;;;;5.40;2.55;;;;;;;17.51;56.89;98761.41;5086346;28;20056;-94
2022/09/18 09:44:50;;;;;;;5.10;2.38;;;;;;;17.58;56.75;98768.16;5093464;28;20071;-94
2022/09/18 09:47:29;;;;;;;4.00;2.38;;;;;;;17.61;56.19;98751.88;5108227;28;20480;-93
2022/09/18 09:50:04;;;;;;;;;;;;;;;17.98;55.10;98801.78;5108858;28;20067;-95
2022/09/18 09:52:31;;;;;;;3.67;2.20;;;;;;;17.68;53.73;98749.69;5109225;28;19919;-94
2022/09/18 09:55:04;;;;;;;3.28;2.28;;;;;;;17.73;54.62;98752.97;5107842;28;20485;-93
2022/09/18 09:57:39;;;;;;;5.72;2.20;;;;;;;17.83;54.93;98773.06;5102426;28;20048;-96
2022/09/18 10:00:13;;;;;;;4.03;2.28;;;;;;;17.75;54.46;98769.91;5103150;28;20044;-94
2022/09/18 10:02:51;;;;;;;3.88;2.10;;;;;;;17.95;55.78;98790.31;5098216;28;20055;-92
2022/09/18 10:05:24;;;;;;;3.35;1.98;;;;;;;17.82;55.20;98769.50;5104864;28;20036;-93
2022/09/18 10:07:59;;;;;;;4.15;2.60;;;;;;;17.92;54.40;98771.69;5102539;28;20064;-93
2022/09/18 10:10:33;;;;;;;6.53;2.65;;;;;;;17.95;54.50;98741.91;5106590;28;20044;-94
2022/09/18 10:13:03;;;;;;;4.93;2.40;;;;;;;17.81;54.86;98730.06;5103966;28;20560;-95
2022/09/18 10:15:37;;;;;;;4.13;2.10;;;;;;;17.88;54.49;98737.84;5108357;28;20092;-94
2022/09/18 10:18:08;;;;;;;4.75;2.17;;;;;;;17.96;54.13;98749.03;5107888;28;20048;-94
2022/09/18 10:20:35;;;;;;;3.92;2.10;;;;;;;18.09;52.95;98738.41;5107532;28;20040;-94
2022/09/18 10:23:10;;;;;;;3.80;2.20;;;;;;;18.05;51.00;98726.97;5105686;28;20044;-95
2022/09/18 10:25:42;;;;;;;7.55;3.72;;;;;;;18.15;50.74;98727.28;5084815;28;20044;-96
2022/09/18 10:28:11;;;;;;;4.57;2.50;;;;;;;18.18;50.55;98730.66;5085955;28;20059;-94
2022/09/18 10:30:53;;;;;;;3.65;2.10;;;;;;;18.20;49.24;98738.66;5086454;28;20044;-95
2022/09/18 10:33:31;;;;;;;4.22;2.30;;;;;;;18.17;52.07;98723.56;5086602;28;20083;-95
2022/09/18 10:36:01;;;;;;;3.50;2.13;;;;;;;18.25;50.16;98723.09;5086357;28;20075;-94
2022/09/18 10:38:31;;;;;;;4.60;2.38;;;;;;;18.32;47.69;98721.75;5086536;28;20036;-96
2022/09/18 10:41:17;;;;;;;3.28;2.13;;;;;;;18.24;47.59;98716.84;5088822;28;20045;-95
2022/09/18 10:43:53;;;;;;;4.18;1.88;;;;;;;18.41;48.66;98744.56;5083954;28;20040;-92
2022/09/18 10:46:25;;;;;;;4.85;2.22;;;;;;;18.47;50.67;98736.13;5069324;28;20044;-95
2022/09/18 10:48:51;;;;;;;2.63;1.70;;;;;;;18.27;45.01;98724.72;5065609;28;20055;-96
2022/09/18 10:58:12;;;;;;;3.28;2.10;;;;;;;18.12;44.75;98719.41;4997355;28;20120;-95
2022/09/18 11:00:52;;;;;;;3.85;1.90;;;;;;;18.21;45.92;98706.25;5002850;28;20057;-96
2022/09/18 11:03:38;;;;;;;4.40;2.17;;;;;;;18.55;47.84;98741.06;5001767;28;20047;-95
2022/09/18 11:06:08;;;;;;;3.83;2.10;;;;;;;18.67;46.47;98743.00;5014014;28;20046;-96
2022/09/18 11:08:40;;;;;;;5.30;2.20;;;;;;;18.43;46.67;98711.25;5015015;28;20073;-96
2022/09/18 11:11:09;;;;;;;6.07;2.33;;;;;;;18.64;46.57;98727.91;5015545;28;20054;-95
2022/09/18 11:13:43;;;;;;;5.63;2.30;;;;;;;18.55;46.71;98704.22;5015947;28;20046;-94
2022/09/18 11:16:10;;;;;;;4.38;2.30;;;;;;;18.54;46.04;98699.81;5021962;28;20042;-93
2022/09/18 11:18:38;;;;;;;4.20;2.45;;;;;;;18.63;46.81;98704.63;5018800;28;20045;-95
2022/09/18 11:21:06;;;;;;;3.80;2.38;;;;;;;18.72;44.81;98699.66;5018513;28;20120;-95
2022/09/18 11:23:33;;;;;;;4.47;2.22;;;;;;;18.76;44.44;98696.69;5021419;28;20052;-96
2022/09/18 11:26:18;;;;;;;5.00;2.10;;;;;;;18.98;45.56;98722.31;5026820;28;20064;-94
2022/09/18 11:28:59;;;;;;;4.43;1.83;;;;;;;18.98;44.89;98696.22;5021708;28;20045;-96
2022/09/18 11:31:41;;;;;;;4.13;2.30;;;;;;;19.05;45.41;98702.97;5050576;28;20084;-96
2022/09/18 11:34:22;;;;;;;3.75;1.85;;;;;;;19.26;44.79;98725.00;5065756;28;20105;-96
2022/09/18 11:36:53;;;;;;;5.07;2.20;;;;;;;19.13;43.22;98691.72;5086395;28;20050;-96
2022/09/18 11:39:23;;;;;;;4.90;2.00;;;;;;;19.17;44.96;98697.75;5086063;28;20080;-96
2022/09/18 11:41:55;;;;;;;4.82;2.30;;;;;;;19.25;43.58;98695.44;5084186;28;20139;-95
2022/09/18 11:44:25;;;;;;;3.75;1.80;;;;;;;19.37;39.14;98721.63;5087650;28;20447;-96
2022/09/18 11:47:12;;;;;;;3.70;1.80;;;;;;;19.20;41.15;98692.19;5084655;28;20045;-96
2022/09/18 11:49:43;;;;;;;3.63;2.08;;;;;;;19.34;39.02;98702.94;5084110;28;20048;-95
2022/09/18 11:52:15;;;;;;;3.70;1.92;;;;;;;19.45;40.51;98691.47;5083850;28;20084;-94
2022/09/18 11:54:50;;;;;;;3.30;1.80;;;;;;;19.50;37.03;98695.59;5083410;28;20055;-95